Terminal Aerodrome Forecast
Issued by NWS

Home | Current Version | Previous Version | Text Only | Print | Product List | Glossary On
Versions: 1 2 3 4 5 6 7 8 9 10 11 12 13 14
000
FTUS43 KBIS 261721
TAFDIK
TAF
KDIK 261721Z 2618/2718 17006KT P6SM FEW250
     FM262100 13007KT P6SM FEW250
     FM270600 10008KT P6SM VCTS SCT090CB WS020/16030KT
     FM271100 05008KT P6SM SCT150
     FM271400 02009KT P6SM BKN150=

USA.gov is the U.S. government's official web portal to all federal, state and local government web resources and services.